Notl Virgil

*Note: All times are displayed in the local standard time of the station location.
**Rain - Equipment is designed to accurately record liquid precipitation; under conditions when precipitation is not in liquid form, the data displayed may not properly reflect rainfall values.

Date Max Temp
(°C)
Min Temp
(°C)
Avg Temp
(°C)
Rain (mm) Avg RH (%) Solar Rad (kJ/m2)
Sat, Feb 17, 2018 -0.5 -6.5 -2.7 0.0 72.2 4097.9
Fri, Feb 16, 2018 4.7 -5.3 0.4 0.2 79.8 5823.3
Thu, Feb 15, 2018 10.4 3.3 6.9 0.0 94.6 4786.4
Wed, Feb 14, 2018 5.5 -4.9 3.1 2.8 74.9 9095.6
Tue, Feb 13, 2018 -1.1 -14.6 -7.2 0.2 77.1 7529.9
Mon, Feb 12, 2018 -1.6 -9.6 -4.0 0.0 71.5 8151.8
Sun, Feb 11, 2018 1.1 -3.6 -1.4 0.0 91.7 4031.8
DateTime Avg Temp (°C) Rain (mm) RH (%) Solar Rad (kJ/m2)
Sun, Feb 18, 2018 05:00 -1.5 0.0 87.0 0.0
Sun, Feb 18, 2018 04:00 -1.8 0.0 86.8 0.3
Sun, Feb 18, 2018 03:00 -1.2 0.0 85.0 0.6
Sun, Feb 18, 2018 02:00 -1.2 0.0 87.3 0.3
Sun, Feb 18, 2018 01:00 -1.4 0.0 87.8 0.3
Sun, Feb 18, 2018 00:00 -1.2 0.0 84.3 0.3
Sat, Feb 17, 2018 23:00 -1.1 0.0 77.8 0.9
Sat, Feb 17, 2018 22:00 -1.2 0.0 72.3 0.6
Sat, Feb 17, 2018 21:00 -1.4 0.0 70.0 0.3
Sat, Feb 17, 2018 20:00 -1.4 0.0 68.5 0.3
Sat, Feb 17, 2018 19:00 -1.3 0.0 64.5 0.9
Sat, Feb 17, 2018 18:00 -1.1 0.0 58.5 28.4
Sat, Feb 17, 2018 17:00 -0.9 0.0 60.3 101.2
Sat, Feb 17, 2018 16:00 -0.9 0.0 60.5 163.4
Sat, Feb 17, 2018 15:00 -0.7 0.0 61.0 355.8
Sat, Feb 17, 2018 14:00 -0.6 0.0 61.5 520.6
Sat, Feb 17, 2018 13:00 -0.7 0.0 63.8 585.5
Sat, Feb 17, 2018 12:00 -0.8 0.0 64.3 689.2
Sat, Feb 17, 2018 11:00 -1.5 0.0 66.5 670.5
Sat, Feb 17, 2018 10:00 -2.3 0.0 69.8 530.8
Sat, Feb 17, 2018 09:00 -3.6 0.0 75.8 364.6
Sat, Feb 17, 2018 08:00 -5.1 0.0 80.8 82.5
Sat, Feb 17, 2018 07:00 -5.5 0.0 81.3 0.0
Sat, Feb 17, 2018 06:00 -5.2 0.0 81.3 0.3
Sat, Feb 17, 2018 05:00 -5.2 0.0 83.5 0.3
Sat, Feb 17, 2018 04:00 -5.2 0.0 83.0 0.3
Sat, Feb 17, 2018 03:00 -5.7 0.0 81.5 0.0
Sat, Feb 17, 2018 02:00 -6.0 0.0 83.3 0.6
Sat, Feb 17, 2018 01:00 -5.4 0.0 79.5 0.6
Sat, Feb 17, 2018 00:00 -5.1 0.0 78.0 0.0
Fri, Feb 16, 2018 23:00 -4.5 0.0 74.0 0.3
Fri, Feb 16, 2018 22:00 -3.6 0.0 68.5 0.9
Fri, Feb 16, 2018 21:00 -3.3 0.0 65.0 0.0
Fri, Feb 16, 2018 20:00 -2.9 0.0 62.3 1.5
Fri, Feb 16, 2018 19:00 -2.6 0.0 61.3 0.9
Fri, Feb 16, 2018 18:00 -2.0 0.0 63.0 63.0
Fri, Feb 16, 2018 17:00 -0.5 0.0 63.3 347.1
Fri, Feb 16, 2018 16:00 0.4 0.0 63.8 510.9
Fri, Feb 16, 2018 15:00 1.8 0.0 64.5 1086.6
Fri, Feb 16, 2018 14:00 2.0 0.0 69.0 1405.8
Fri, Feb 16, 2018 13:00 2.1 0.0 71.5 1218.2
Fri, Feb 16, 2018 12:00 2.0 0.0 81.8 793.8
Fri, Feb 16, 2018 11:00 1.3 0.0 91.0 128.7
Fri, Feb 16, 2018 10:00 1.7 0.0 87.5 208.3
Fri, Feb 16, 2018 09:00 1.6 0.0 88.3 50.6
Fri, Feb 16, 2018 08:00 1.8 0.0 89.8 6.1
Fri, Feb 16, 2018 07:00 2.4 0.0 90.5 0.3
Fri, Feb 16, 2018 06:00 2.4 0.0 89.3 0.0


asterix Register now to access more data! asterix